createdAt,value
2022-10-18T00:02:04.467Z,134.10
2022-10-18T00:04:34.427Z,67.93
2022-10-18T00:07:02.968Z,109.60
2022-10-18T00:09:31.558Z,101.67
2022-10-18T00:12:00.792Z,41.57
2022-10-18T00:14:29.256Z,75.90
2022-10-18T00:16:57.675Z,57.93
2022-10-18T00:19:28.592Z,126.07
2022-10-18T00:21:59.241Z,84.83
2022-10-18T00:24:27.680Z,85.30
2022-10-18T00:26:56.069Z,74.67
2022-10-18T00:29:24.507Z,84.97
2022-10-18T00:31:52.945Z,64.83
2022-10-18T00:34:21.340Z,51.10
2022-10-18T00:36:49.794Z,71.90
2022-10-18T00:39:21.176Z,116.87
2022-10-18T00:41:50.308Z,44.67
2022-10-18T00:44:56.256Z,84.73
2022-10-18T00:47:24.690Z,107.43
2022-10-18T00:49:57.195Z,64.40
2022-10-18T00:52:29.433Z,140.60
2022-10-18T00:54:59.786Z,98.43
2022-10-18T00:57:28.331Z,76.67
2022-10-18T00:59:57.116Z,109.50
2022-10-18T01:02:26.772Z,75.70
2022-10-18T01:04:55.203Z,183.30
2022-10-18T01:07:42.753Z,93.33
2022-10-18T01:10:25.907Z,79.53
2022-10-18T01:13:04.287Z,85.80
2022-10-18T01:15:36.718Z,218.20
2022-10-18T01:18:13.214Z,107.67
2022-10-18T01:21:05.329Z,170.83
2022-10-18T01:23:56.897Z,192.97
2022-10-18T01:26:41.383Z,169.67
2022-10-18T01:29:21.562Z,235.27
2022-10-18T01:31:58.897Z,113.17
2022-10-18T01:34:32.925Z,117.70
2022-10-18T01:37:04.157Z,43.87
2022-10-18T01:39:36.758Z,224.00
2022-10-18T01:42:09.891Z,235.17
2022-10-18T01:44:40.086Z,111.80
2022-10-18T01:47:13.341Z,105.57
2022-10-18T01:49:41.760Z,115.80
2022-10-18T01:52:13.378Z,104.20
2022-10-18T01:54:45.400Z,250.20
2022-10-18T01:57:21.025Z,45.37
2022-10-18T01:59:57.534Z,73.07
2022-10-18T02:02:41.388Z,331.83
2022-10-18T02:05:22.412Z,160.33
2022-10-18T02:08:05.661Z,143.50
2022-10-18T02:10:47.151Z,51.17
2022-10-18T02:13:19.022Z,231.87
2022-10-18T02:15:52.359Z,217.10
2022-10-18T02:18:25.515Z,148.73
2022-10-18T02:20:55.151Z,133.13
2022-10-18T02:23:26.022Z,121.13
2022-10-18T02:25:55.030Z,78.73
2022-10-18T02:30:58.709Z,240.60
2022-10-18T02:33:35.080Z,98.43
2022-10-18T02:36:07.600Z,116.33
2022-10-18T02:38:36.200Z,122.03
2022-10-18T02:41:04.632Z,130.67
2022-10-18T02:43:33.089Z,91.97
2022-10-18T02:46:01.512Z,27.17
2022-10-18T02:48:31.295Z,22.70
2022-10-18T02:50:59.682Z,34.43
2022-10-18T02:53:28.220Z,31.10
2022-10-18T02:55:56.628Z,66.23
2022-10-18T02:58:25.097Z,94.97
2022-10-18T03:00:53.557Z,55.30
2022-10-18T03:03:22.002Z,53.17
2022-10-18T03:05:52.452Z,48.53
2022-10-18T03:08:22.666Z,32.83
2022-10-18T03:10:51.127Z,25.23
2022-10-18T03:13:19.670Z,28.17
2022-10-18T03:15:48.140Z,30.27
2022-10-18T03:18:16.998Z,22.47
2022-10-18T03:20:45.420Z,32.37
2022-10-18T03:23:15.190Z,31.10
2022-10-18T03:25:45.697Z,27.70
2022-10-18T03:28:14.884Z,57.33
2022-10-18T03:30:43.327Z,102.37
2022-10-18T03:33:11.748Z,94.13
2022-10-18T03:35:40.123Z,64.87
2022-10-18T03:38:08.632Z,106.63
2022-10-18T03:40:38.471Z,25.07
2022-10-18T03:43:06.892Z,87.33
2022-10-18T03:45:35.231Z,61.90
2022-10-18T03:48:03.740Z,28.67
2022-10-18T03:50:32.142Z,37.37
2022-10-18T03:53:00.526Z,74.23
2022-10-18T03:55:28.896Z,81.93
2022-10-18T03:57:58.717Z,61.93
2022-10-18T04:00:27.228Z,24.40
2022-10-18T04:02:56.092Z,64.40
2022-10-18T04:05:26.882Z,40.57
2022-10-18T04:07:55.383Z,20.30
2022-10-18T04:10:24.077Z,15.73
2022-10-18T04:12:52.563Z,15.67
2022-10-18T04:15:22.533Z,18.53
2022-10-18T04:17:50.928Z,68.63
2022-10-18T04:20:19.445Z,23.27
2022-10-18T04:22:51.973Z,33.80
2022-10-18T04:25:20.416Z,20.60
2022-10-18T04:27:49.186Z,41.70
2022-10-18T04:30:17.920Z,35.33
2022-10-18T04:32:47.640Z,56.73
2022-10-18T04:35:16.144Z,82.60
2022-10-18T04:37:44.515Z,78.57
2022-10-18T04:40:13.716Z,30.10
2022-10-18T04:42:42.124Z,40.50
2022-10-18T04:45:11.500Z,57.23
2022-10-18T04:47:39.952Z,91.63
2022-10-18T04:50:10.344Z,107.67
2022-10-18T04:52:39.039Z,178.83
2022-10-18T04:55:08.434Z,151.83
2022-10-18T04:57:36.991Z,373.93
2022-10-18T05:00:06.427Z,128.93
2022-10-18T05:02:35.010Z,351.73
2022-10-18T05:05:03.537Z,308.60
2022-10-18T05:07:33.340Z,374.27
2022-10-18T05:10:01.891Z,184.70
2022-10-18T05:12:30.654Z,147.10
2022-10-18T05:14:59.211Z,129.17
2022-10-18T05:17:27.637Z,133.03
2022-10-18T05:19:56.093Z,105.00
2022-10-18T05:22:24.487Z,71.67
2022-10-18T05:24:54.222Z,113.97
2022-10-18T05:27:22.723Z,72.93
2022-10-18T05:29:51.132Z,58.37
2022-10-18T05:32:19.573Z,143.83
2022-10-18T05:34:48.049Z,79.17
2022-10-18T05:37:16.462Z,136.37
2022-10-18T05:39:44.948Z,124.37
2022-10-18T05:42:15.045Z,83.40
2022-10-18T05:44:43.511Z,82.83
2022-10-18T05:47:11.900Z,68.43
2022-10-18T05:49:40.333Z,77.97
2022-10-18T05:52:08.817Z,136.13
2022-10-18T05:54:37.201Z,92.40
2022-10-18T05:57:05.669Z,60.67
2022-10-18T05:59:35.432Z,150.53
2022-10-18T06:02:03.859Z,117.87
2022-10-18T06:04:32.324Z,120.90
2022-10-18T06:07:00.673Z,137.53
2022-10-18T06:09:30.612Z,145.77
2022-10-18T06:11:59.055Z,145.63
2022-10-18T06:14:27.568Z,90.30
2022-10-18T06:16:57.456Z,60.67
2022-10-18T06:19:25.859Z,50.67
2022-10-18T06:21:54.323Z,94.77
2022-10-18T06:24:23.055Z,90.97
2022-10-18T06:26:51.477Z,85.20
2022-10-18T06:29:19.916Z,115.80
2022-10-18T06:31:48.299Z,69.97
2022-10-18T06:34:18.128Z,116.33
2022-10-18T06:36:46.526Z,160.03
2022-10-18T06:39:14.999Z,96.73
2022-10-18T06:41:43.420Z,226.13
2022-10-18T06:44:21.412Z,148.50
2022-10-18T06:46:50.476Z,233.47
2022-10-18T06:49:20.683Z,310.47
2022-10-18T06:51:49.190Z,331.10
2022-10-18T06:54:18.956Z,206.00
2022-10-18T06:56:47.708Z,283.10
2022-10-18T06:59:16.357Z,115.37
2022-10-18T07:01:44.808Z,151.17
2022-10-18T07:04:13.539Z,163.07
2022-10-18T07:06:43.331Z,139.03
2022-10-18T07:09:11.811Z,39.90
2022-10-18T07:11:40.263Z,33.73
2022-10-18T07:14:12.526Z,26.70
2022-10-18T07:16:43.780Z,52.77
2022-10-18T07:19:12.193Z,20.53
2022-10-18T07:21:40.634Z,22.70
2022-10-18T07:24:10.617Z,23.00
2022-10-18T07:26:39.034Z,55.03
2022-10-18T07:29:11.160Z,13.60
2022-10-18T07:31:40.911Z,7.93
2022-10-18T07:34:12.953Z,6.63
2022-10-18T07:36:41.712Z,6.60
2022-10-18T07:39:11.783Z,10.40
2022-10-18T07:41:40.215Z,6.07
2022-10-18T07:44:09.038Z,6.63
2022-10-18T07:46:37.472Z,3.50
2022-10-18T07:49:06.119Z,8.03
2022-10-18T07:51:36.065Z,21.47
2022-10-18T07:54:04.606Z,12.47
2022-10-18T07:56:34.426Z,46.73
2022-10-18T07:59:02.897Z,6.27
2022-10-18T08:01:31.408Z,7.33
2022-10-18T08:04:06.160Z,36.80
2022-10-18T08:06:36.072Z,12.10
2022-10-18T08:09:04.985Z,7.17
2022-10-18T08:11:34.857Z,10.70
2022-10-18T08:14:03.309Z,9.70
2022-10-18T08:19:00.751Z,11.53
2022-10-18T08:21:29.209Z,18.67
2022-10-18T08:23:57.784Z,10.17
2022-10-18T08:26:26.267Z,13.63
2022-10-18T08:29:17.596Z,16.40
2022-10-18T08:31:46.403Z,10.03
2022-10-18T08:34:19.491Z,10.67
2022-10-18T08:36:48.625Z,9.57
2022-10-18T08:39:17.127Z,13.13
2022-10-18T08:42:08.598Z,16.07
2022-10-18T08:44:44.912Z,15.20
2022-10-18T08:47:16.784Z,14.87
2022-10-18T08:49:47.842Z,9.70
2022-10-18T08:52:21.700Z,15.80
2022-10-18T08:55:02.146Z,17.20
2022-10-18T08:57:32.693Z,13.47
2022-10-18T09:00:03.540Z,12.23
2022-10-18T09:02:49.087Z,10.03
2022-10-18T09:05:26.022Z,15.83
2022-10-18T09:08:18.593Z,10.07
2022-10-18T09:14:03.640Z,11.50
2022-10-18T09:16:45.639Z,13.00
2022-10-18T09:19:25.998Z,11.87
2022-10-18T09:21:56.085Z,13.97
2022-10-18T09:24:30.179Z,9.67
2022-10-18T09:27:05.008Z,13.57
2022-10-18T09:29:47.591Z,10.23
2022-10-18T09:32:29.177Z,9.07
2022-10-18T09:35:02.002Z,13.93
2022-10-18T09:37:33.661Z,6.87
2022-10-18T09:40:16.559Z,14.23
2022-10-18T09:42:56.265Z,15.00
2022-10-18T09:45:28.776Z,6.97
2022-10-18T09:48:05.995Z,9.83
2022-10-18T09:50:39.325Z,20.23
2022-10-18T09:53:16.812Z,14.93
2022-10-18T09:55:57.068Z,10.77
2022-10-18T09:58:27.963Z,9.37
2022-10-18T10:00:57.160Z,7.47
2022-10-18T10:03:27.735Z,12.17
2022-10-18T10:06:04.526Z,11.17
2022-10-18T10:08:35.256Z,7.33
2022-10-18T10:11:03.690Z,4.07
2022-10-18T10:13:32.264Z,5.83
2022-10-18T10:16:02.967Z,8.27
2022-10-18T10:18:34.259Z,5.73
2022-10-18T10:21:06.353Z,9.63
2022-10-18T10:23:38.945Z,6.97
2022-10-18T10:26:22.657Z,9.83
2022-10-18T10:28:51.692Z,3.37
2022-10-18T10:31:28.424Z,4.50
2022-10-18T10:34:03.151Z,3.83
2022-10-18T10:36:34.118Z,5.77
2022-10-18T10:39:08.433Z,3.53
2022-10-18T10:41:37.266Z,3.33
2022-10-18T10:44:14.831Z,5.40
2022-10-18T10:46:45.294Z,5.43
2022-10-18T10:49:39.055Z,3.97
2022-10-18T10:52:27.015Z,4.90
2022-10-18T10:55:11.111Z,5.50
2022-10-18T10:57:47.132Z,3.23
2022-10-18T11:00:37.687Z,6.27
2022-10-18T11:03:27.948Z,2.90
2022-10-18T11:06:00.941Z,5.80
2022-10-18T11:08:34.345Z,12.87
2022-10-18T11:11:16.940Z,5.83
2022-10-18T11:13:56.997Z,8.40
2022-10-18T11:16:49.752Z,3.37
2022-10-18T11:19:33.607Z,2.43
2022-10-18T11:22:07.679Z,3.97
2022-10-18T11:24:37.010Z,6.00
2022-10-18T11:27:10.540Z,3.97
2022-10-18T11:29:59.866Z,9.00
2022-10-18T11:32:35.112Z,5.27
2022-10-18T11:35:25.746Z,7.33
2022-10-18T11:38:06.677Z,2.00
2022-10-18T11:40:58.492Z,6.70
2022-10-18T11:44:00.642Z,5.90
2022-10-18T11:46:34.781Z,4.60
2022-10-18T11:49:28.408Z,5.27
2022-10-18T11:52:08.726Z,5.97
2022-10-18T11:55:10.172Z,7.33
2022-10-18T11:57:47.176Z,0.97
2022-10-18T12:00:39.383Z,6.67
2022-10-18T12:03:28.039Z,8.37
2022-10-18T12:06:00.012Z,3.20
2022-10-18T12:08:32.809Z,4.30
2022-10-18T12:11:08.800Z,5.67
2022-10-18T12:13:45.597Z,1.80
2022-10-18T12:16:14.200Z,4.87
2022-10-18T12:18:50.736Z,1.80
2022-10-18T12:21:25.519Z,4.73
2022-10-18T12:23:57.407Z,3.87
2022-10-18T12:26:28.164Z,4.67
2022-10-18T12:29:06.512Z,3.13
2022-10-18T12:31:41.012Z,2.67
2022-10-18T12:34:26.011Z,6.17
2022-10-18T12:37:13.036Z,2.37
2022-10-18T12:40:05.397Z,7.40
2022-10-18T12:42:35.577Z,3.30
2022-10-18T12:45:25.704Z,1.67
2022-10-18T12:47:54.629Z,6.07
2022-10-18T12:50:34.819Z,1.30
2022-10-18T12:53:18.571Z,3.53
2022-10-18T12:55:48.673Z,2.80
2022-10-18T12:58:30.027Z,3.47
2022-10-18T13:01:06.560Z,0.87
2022-10-18T13:03:51.339Z,3.87
2022-10-18T13:06:20.260Z,4.77
2022-10-18T13:08:51.110Z,1.67
2022-10-18T13:11:35.869Z,4.47
2022-10-18T13:14:35.405Z,1.07
2022-10-18T13:17:16.398Z,2.83
2022-10-18T13:20:20.621Z,2.13
2022-10-18T13:22:57.284Z,4.67
2022-10-18T13:25:30.480Z,1.70
2022-10-18T13:28:04.591Z,4.93
2022-10-18T13:30:42.574Z,7.30
2022-10-18T13:33:28.986Z,6.20
2022-10-18T13:35:59.300Z,2.80
2022-10-18T13:38:42.147Z,6.20
2022-10-18T13:41:13.664Z,6.80
2022-10-18T13:44:19.574Z,2.33
2022-10-18T13:47:20.622Z,4.53
2022-10-18T13:50:04.371Z,5.17
2022-10-18T13:52:58.597Z,2.60
2022-10-18T13:55:58.016Z,1.73
2022-10-18T13:58:34.138Z,2.53
2022-10-18T14:01:14.664Z,1.67
2022-10-18T14:04:22.335Z,3.13
2022-10-18T14:06:53.440Z,5.07
2022-10-18T14:09:32.928Z,7.43
2022-10-18T14:12:17.889Z,3.87
2022-10-18T14:14:51.251Z,2.60
2022-10-18T14:17:30.614Z,5.13
2022-10-18T14:20:04.411Z,4.07
2022-10-18T14:22:39.528Z,1.97
2022-10-18T14:25:20.400Z,4.63
2022-10-18T14:27:52.259Z,1.30
2022-10-18T14:30:23.181Z,2.77
2022-10-18T14:32:54.405Z,2.83
2022-10-18T14:35:32.627Z,5.80
2022-10-18T14:38:03.206Z,5.43
2022-10-18T14:40:35.944Z,3.10
2022-10-18T14:43:07.770Z,6.97
2022-10-18T14:45:36.330Z,4.97
2022-10-18T14:48:11.631Z,2.63
2022-10-18T14:50:40.147Z,5.57
2022-10-18T14:53:14.858Z,0.63
2022-10-18T14:55:44.131Z,5.40
2022-10-18T14:58:17.066Z,3.80
2022-10-18T15:00:48.690Z,6.30
2022-10-18T15:03:19.018Z,2.50
2022-10-18T15:05:59.427Z,4.00
2022-10-18T15:08:35.416Z,10.07
2022-10-18T15:11:04.283Z,6.93
2022-10-18T15:13:33.623Z,4.20
2022-10-18T15:16:02.757Z,3.13
2022-10-18T15:21:10.742Z,8.93
2022-10-18T15:23:40.596Z,3.00
2022-10-18T15:26:13.532Z,5.53
2022-10-18T15:28:49.742Z,9.20
2022-10-18T15:31:25.007Z,7.60
2022-10-18T15:33:54.768Z,3.00
2022-10-18T15:36:31.043Z,5.90
2022-10-18T15:39:09.766Z,8.03
2022-10-18T15:41:40.975Z,6.07
2022-10-18T15:44:20.121Z,7.20
2022-10-18T15:46:48.928Z,3.13
2022-10-18T15:50:00.328Z,5.97
2022-10-18T15:52:39.014Z,8.23
2022-10-18T15:55:46.041Z,5.53
2022-10-18T15:58:19.261Z,3.47
2022-10-18T16:00:48.875Z,5.97
2022-10-18T16:03:19.008Z,3.90
2022-10-18T16:05:47.426Z,6.43
2022-10-18T16:08:24.023Z,4.87
2022-10-18T16:10:53.908Z,7.97
2022-10-18T16:13:22.345Z,5.33
2022-10-18T16:15:50.814Z,7.43
2022-10-18T16:18:21.149Z,6.63
2022-10-18T16:20:49.753Z,6.57
2022-10-18T16:23:20.977Z,4.63
2022-10-18T16:25:49.774Z,10.50
2022-10-18T16:28:21.774Z,8.23
2022-10-18T16:30:55.186Z,11.90
2022-10-18T16:33:24.224Z,4.77
2022-10-18T16:35:53.464Z,2.50
2022-10-18T16:38:29.921Z,5.10
2022-10-18T16:41:01.597Z,4.47
2022-10-18T16:43:31.516Z,5.33
2022-10-18T16:45:59.894Z,7.03
2022-10-18T16:48:28.836Z,5.43
2022-10-18T16:50:57.745Z,3.50
2022-10-18T16:53:27.839Z,13.50
2022-10-18T16:55:58.825Z,4.07
2022-10-18T16:58:28.745Z,6.80
2022-10-18T17:01:01.839Z,4.93
2022-10-18T17:03:32.562Z,5.20
2022-10-18T17:06:00.975Z,8.97
2022-10-18T17:08:29.758Z,4.90
2022-10-18T17:11:00.035Z,3.10
2022-10-18T17:13:28.522Z,4.63
2022-10-18T17:16:00.580Z,6.43
2022-10-18T17:18:30.556Z,8.07
2022-10-18T17:21:02.528Z,6.10
2022-10-18T17:23:31.059Z,14.10
2022-10-18T17:26:07.275Z,2.80
2022-10-18T17:28:51.015Z,3.60
2022-10-18T17:31:21.025Z,5.67
2022-10-18T17:33:49.507Z,5.80
2022-10-18T17:36:17.969Z,3.17
2022-10-18T17:38:48.221Z,9.40
2022-10-18T17:41:16.582Z,2.90
2022-10-18T17:43:45.255Z,4.13
2022-10-18T17:46:14.192Z,4.87
2022-10-18T17:48:44.236Z,6.60
2022-10-18T17:51:14.420Z,5.50
2022-10-18T17:53:43.234Z,5.40
2022-10-18T17:56:12.699Z,5.87
2022-10-18T17:58:43.434Z,5.20
2022-10-18T18:01:12.881Z,8.40
2022-10-18T18:03:42.720Z,7.80
2022-10-18T18:06:17.396Z,9.40
2022-10-18T18:08:46.590Z,7.33
2022-10-18T18:11:15.449Z,6.03
2022-10-18T18:13:43.955Z,6.47
2022-10-18T18:16:14.185Z,14.13
2022-10-18T18:18:44.673Z,16.70
2022-10-18T18:21:13.596Z,12.27
2022-10-18T18:23:42.251Z,4.70
2022-10-18T18:26:10.861Z,6.97
2022-10-18T18:28:39.397Z,7.53
2022-10-18T18:31:08.577Z,9.63
2022-10-18T18:33:37.770Z,17.87
2022-10-18T18:36:08.604Z,7.97
2022-10-18T18:38:39.136Z,15.73
2022-10-18T18:41:09.253Z,8.90
2022-10-18T18:43:38.739Z,7.63
2022-10-18T18:46:08.151Z,9.33
2022-10-18T18:48:37.844Z,18.57
2022-10-18T18:51:11.432Z,5.50
2022-10-18T18:53:41.067Z,9.13
2022-10-18T18:56:12.179Z,11.13
2022-10-18T18:58:42.490Z,11.87
2022-10-18T19:01:12.909Z,11.83
2022-10-18T19:03:42.877Z,3.60
2022-10-18T19:06:14.282Z,7.57
2022-10-18T19:08:44.737Z,12.97
2022-10-18T19:11:16.257Z,7.83
2022-10-18T19:13:44.844Z,11.50
2022-10-18T19:16:25.257Z,16.20
2022-10-18T19:18:56.196Z,11.13
2022-10-18T19:21:27.180Z,15.43
2022-10-18T19:23:56.079Z,8.50
2022-10-18T19:26:37.786Z,7.53
2022-10-18T19:29:09.398Z,8.57
2022-10-18T19:31:38.603Z,7.43
2022-10-18T19:34:08.907Z,5.77
2022-10-18T19:36:39.947Z,4.23
2022-10-18T19:39:09.967Z,6.87
2022-10-18T19:41:38.447Z,8.03
2022-10-18T19:44:07.455Z,6.00
2022-10-18T19:46:35.832Z,4.93
2022-10-18T19:49:04.266Z,6.00
2022-10-18T19:51:32.740Z,4.03
2022-10-18T19:54:03.090Z,2.83
2022-10-18T19:56:31.612Z,2.83
2022-10-18T19:59:01.206Z,4.07
2022-10-18T20:01:30.932Z,9.47
2022-10-18T20:03:59.512Z,6.57
2022-10-18T20:06:28.089Z,5.73
2022-10-18T20:08:56.655Z,8.07
2022-10-18T20:11:29.369Z,5.80
2022-10-18T20:13:58.043Z,4.60
2022-10-18T20:16:29.428Z,5.50
2022-10-18T20:18:58.752Z,4.83
2022-10-18T20:21:28.348Z,5.93
2022-10-18T20:23:57.156Z,7.77
2022-10-18T20:26:26.999Z,3.47
2022-10-18T20:28:57.845Z,6.83
2022-10-18T20:31:28.162Z,7.07
2022-10-18T20:33:57.990Z,6.20
2022-10-18T20:36:27.571Z,3.40
2022-10-18T20:38:56.306Z,4.87
2022-10-18T20:41:28.125Z,4.97
2022-10-18T20:43:57.953Z,8.73
2022-10-18T20:46:27.763Z,4.87
2022-10-18T20:48:56.226Z,5.63
2022-10-18T20:51:25.239Z,7.00
2022-10-18T20:53:54.303Z,5.93
2022-10-18T20:56:26.362Z,7.20
2022-10-18T20:58:57.567Z,7.77
2022-10-18T21:01:28.030Z,6.80
2022-10-18T21:03:57.959Z,5.17
2022-10-18T21:06:28.541Z,6.57
2022-10-18T21:08:58.428Z,6.97
2022-10-18T21:11:28.083Z,24.37
2022-10-18T21:14:00.095Z,6.90
2022-10-18T21:16:28.823Z,4.20
2022-10-18T21:18:57.237Z,4.47
2022-10-18T21:21:26.238Z,10.10
2022-10-18T21:23:54.987Z,11.87
2022-10-18T21:26:25.891Z,7.53
2022-10-18T21:28:56.613Z,13.30
2022-10-18T21:31:27.701Z,6.20
2022-10-18T21:33:57.785Z,11.57
2022-10-18T21:36:27.591Z,9.33
2022-10-18T21:38:55.973Z,12.63
2022-10-18T21:41:24.726Z,18.03
2022-10-18T21:43:55.086Z,12.80
2022-10-18T21:46:27.040Z,10.07
2022-10-18T21:48:57.595Z,9.00
2022-10-18T21:51:27.562Z,8.53
2022-10-18T21:53:57.579Z,9.37
2022-10-18T21:56:27.411Z,7.30
2022-10-18T21:58:56.172Z,3.97
2022-10-18T22:01:28.309Z,6.63
2022-10-18T22:03:57.692Z,9.87
2022-10-18T22:06:29.250Z,10.87
2022-10-18T22:08:59.621Z,5.23
2022-10-18T22:11:30.535Z,3.73
2022-10-18T22:13:59.344Z,13.13
2022-10-18T22:16:29.459Z,10.90
2022-10-18T22:18:59.826Z,6.23
2022-10-18T22:21:29.301Z,7.47
2022-10-18T22:23:58.698Z,6.23
2022-10-18T22:26:30.469Z,9.10
2022-10-18T22:29:00.719Z,5.77
2022-10-18T22:31:32.640Z,7.03
2022-10-18T22:34:03.115Z,7.10
2022-10-18T22:36:32.416Z,8.17
2022-10-18T22:39:01.307Z,12.03
2022-10-18T22:41:30.037Z,26.47
2022-10-18T22:44:01.177Z,128.87
2022-10-18T22:46:33.849Z,151.37
2022-10-18T22:49:02.296Z,101.03
2022-10-18T22:51:30.899Z,56.87
2022-10-18T22:53:59.448Z,45.97
2022-10-18T22:56:28.032Z,32.30
2022-10-18T22:58:56.839Z,41.93
2022-10-18T23:01:25.611Z,44.03
2022-10-18T23:03:56.472Z,14.57
2022-10-18T23:06:26.875Z,50.57
2022-10-18T23:08:57.966Z,26.50
2022-10-18T23:11:28.631Z,18.30
2022-10-18T23:13:57.107Z,15.20
2022-10-18T23:16:25.669Z,19.30
2022-10-18T23:18:57.163Z,15.43
2022-10-18T23:21:27.904Z,13.50
2022-10-18T23:23:57.408Z,7.43
2022-10-18T23:26:27.859Z,9.93
2022-10-18T23:28:56.940Z,13.30
2022-10-18T23:31:27.073Z,18.90
2022-10-18T23:33:58.682Z,20.17
2022-10-18T23:36:27.368Z,18.13
2022-10-18T23:38:56.555Z,40.20
2022-10-18T23:41:25.731Z,28.57
2022-10-18T23:43:54.527Z,25.87
2022-10-18T23:46:23.348Z,30.97
2022-10-18T23:48:51.841Z,43.60
2022-10-18T23:51:21.592Z,15.30
2022-10-18T23:53:50.028Z,34.53
2022-10-18T23:56:18.477Z,25.97
2022-10-18T23:58:47.452Z,27.37
